Time;durP1;ratioP1;P1;durP2;ratioP2;P2;SDS_P1;SDS_P2;PMS_P1;PMS_P2;Temp;Humidity;BMP_temperature;BMP_pressure;BME280_temperature;BME280_humidity;BME280_pressure;Samples;Min_cycle;Max_cycle;Signal;HPM_P1;HPM_P2
2022/01/11 00:01:43;;;;;;;;;28.33;24.00;;;;;5.32;100.00;102177.38;5105337;27;45454;-82
2022/01/11 00:04:15;;;;;;;;;25.67;21.67;;;;;5.37;100.00;102189.13;5087339;27;47172;-82
2022/01/11 00:06:48;;;;;;;;;28.00;23.67;;;;;5.33;100.00;102186.19;5106822;27;45972;-81
2022/01/11 00:12:10;;;;;;;;;31.33;25.67;;;;;5.31;100.00;102193.09;5095985;27;45460;-81
2022/01/11 00:14:37;;;;;;;;;20.00;20.00;;;;;5.29;100.00;102187.75;5086465;27;48333;-82
2022/01/11 00:17:03;;;;;;;;;16.33;16.33;;;;;5.30;100.00;102188.66;5105073;27;45411;-82
2022/01/11 00:19:29;;;;;;;;;28.67;23.00;;;;;5.30;100.00;102196.59;5069779;27;45378;-81
2022/01/11 00:25:16;;;;;;;;;23.00;21.00;;;;;5.30;100.00;102192.22;5103699;27;45544;-82
2022/01/11 00:27:41;;;;;;;;;28.00;25.00;;;;;5.32;100.00;102193.22;5104869;27;45424;-82
2022/01/11 00:30:08;;;;;;;;;31.67;24.33;;;;;5.33;100.00;102191.47;5104528;27;45660;-81
2022/01/11 00:32:42;;;;;;;;;17.67;16.33;;;;;5.28;100.00;102191.22;5087530;27;45414;-81
2022/01/11 00:35:11;;;;;;;;;23.67;20.33;;;;;5.29;100.00;102198.31;5106784;27;46371;-82
2022/01/11 00:37:37;;;;;;;;;25.00;22.33;;;;;5.31;100.00;102188.75;5107050;27;45503;-82
2022/01/11 00:40:04;;;;;;;;;25.33;23.33;;;;;5.32;100.00;102195.84;5103955;27;45533;-82
2022/01/11 00:42:31;;;;;;;;;22.00;22.00;;;;;5.30;100.00;102197.47;5106484;27;45906;-81
2022/01/11 00:44:57;;;;;;;;;28.33;20.33;;;;;5.25;100.00;102193.69;5088061;27;46973;-81
2022/01/11 00:47:23;;;;;;;;;18.00;18.00;;;;;5.24;100.00;102190.94;5087219;27;45419;-82
2022/01/11 00:49:51;;;;;;;;;20.33;19.67;;;;;5.24;100.00;102189.22;5086588;27;45412;-82
2022/01/11 00:52:17;;;;;;;;;19.33;17.67;;;;;5.19;100.00;102193.28;5087296;27;45798;-82
2022/01/11 00:54:42;;;;;;;;;16.33;15.00;;;;;5.13;100.00;102188.59;5086774;27;46504;-81
2022/01/11 00:57:08;;;;;;;;;16.33;13.67;;;;;5.14;100.00;102200.03;5089226;27;45459;-82
2022/01/11 00:59:34;;;;;;;;;18.00;14.67;;;;;5.15;100.00;102204.47;5108011;27;45799;-81
2022/01/11 01:02:00;;;;;;;;;21.00;18.00;;;;;5.14;100.00;102206.22;5108457;27;45447;-81
2022/01/11 01:04:26;;;;;;;;;18.00;16.67;;;;;5.12;100.00;102212.22;5126634;27;45439;-82
2022/01/11 01:06:52;;;;;;;;;18.33;16.33;;;;;5.04;100.00;102197.66;5125035;27;45286;-82
2022/01/11 01:09:19;;;;;;;;;18.67;18.00;;;;;5.10;100.00;102204.22;5107386;27;45439;-82
2022/01/11 01:11:45;;;;;;;;;20.33;18.00;;;;;5.06;100.00;102206.59;5106703;27;45919;-82
2022/01/11 01:14:11;;;;;;;;;26.33;21.33;;;;;5.09;100.00;102207.69;5122645;27;45517;-80
2022/01/11 01:16:37;;;;;;;;;20.00;19.00;;;;;5.08;100.00;102210.22;5124458;27;45672;-81
2022/01/11 01:19:03;;;;;;;;;20.00;18.00;;;;;5.06;100.00;102207.47;5104956;27;45720;-81
2022/01/11 01:21:36;;;;;;;;;21.67;20.67;;;;;5.10;100.00;102213.84;5106014;27;45408;-81
2022/01/11 01:24:02;;;;;;;;;23.00;20.67;;;;;5.03;100.00;102215.22;5105520;27;46222;-81
2022/01/11 01:26:27;;;;;;;;;20.00;18.00;;;;;5.07;100.00;102234.75;5107798;27;45513;-81
2022/01/11 01:28:53;;;;;;;;;16.00;15.67;;;;;5.06;100.00;102222.41;5111210;27;45460;-81
2022/01/11 01:31:19;;;;;;;;;21.33;19.33;;;;;5.05;100.00;102220.56;5129015;27;45789;-81
2022/01/11 01:33:45;;;;;;;;;24.00;21.33;;;;;5.08;100.00;102223.41;5129252;27;45392;-81
2022/01/11 01:36:11;;;;;;;;;24.00;23.00;;;;;5.08;100.00;102218.13;5109486;27;45419;-81
2022/01/11 01:38:38;;;;;;;;;26.00;20.00;;;;;5.09;100.00;102225.22;5125094;27;45435;-81
2022/01/11 01:41:13;;;;;;;;;25.00;23.33;;;;;5.09;100.00;102217.28;5105720;27;45411;-80
2022/01/11 01:43:39;;;;;;;;;24.00;21.00;;;;;5.06;100.00;102211.84;5102116;27;47322;-81
2022/01/11 01:46:04;;;;;;;;;24.00;21.33;;;;;5.07;100.00;102224.19;5104145;27;45370;-82
2022/01/11 01:48:30;;;;;;;;;25.33;24.33;;;;;5.08;100.00;102226.03;5105683;27;45439;-80
2022/01/11 01:50:57;;;;;;;;;23.67;20.67;;;;;5.14;100.00;102237.84;5104794;27;45781;-81
2022/01/11 01:53:22;;;;;;;;;25.33;22.33;;;;;5.17;100.00;102238.06;5102063;27;46990;-81
2022/01/11 01:55:49;;;;;;;;;28.00;22.33;;;;;5.17;100.00;102242.41;5103782;27;45785;-80
2022/01/11 01:58:16;;;;;;;;;17.33;17.00;;;;;5.27;100.00;102244.81;5103292;27;45954;-81
2022/01/11 02:00:46;;;;;;;;;21.67;21.00;;;;;5.22;100.00;102246.22;5105578;27;45544;-81
2022/01/11 02:03:15;;;;;;;;;21.33;16.00;;;;;5.30;100.00;102249.34;5104865;27;48118;-81
2022/01/11 02:05:42;;;;;;;;;19.33;17.33;;;;;5.30;100.00;102252.88;5097180;27;45546;-82
2022/01/11 02:08:09;;;;;;;;;20.33;19.00;;;;;5.29;100.00;102250.13;5085275;27;45503;-81
2022/01/11 02:11:14;;;;;;;;;26.67;20.67;;;;;5.38;100.00;102251.59;5085985;27;45411;-81
2022/01/11 02:13:40;;;;;;;;;24.67;24.33;;;;;5.26;100.00;102239.41;5093423;27;47929;-81
2022/01/11 02:16:05;;;;;;;;;19.00;18.00;;;;;5.31;100.00;102248.50;5102898;27;45746;-81
2022/01/11 02:18:31;;;;;;;;;26.33;21.00;;;;;5.26;100.00;102237.69;5086520;27;45349;-81
2022/01/11 02:20:58;;;;;;;;;30.33;21.67;;;;;5.32;100.00;102253.88;5085167;28;45803;-81
2022/01/11 02:23:27;;;;;;;;;24.67;24.67;;;;;5.29;100.00;102252.78;5085094;27;46347;-82
2022/01/11 02:25:53;;;;;;;;;30.67;23.00;;;;;5.24;100.00;102255.16;5088485;27;45425;-82
2022/01/11 02:28:21;;;;;;;;;25.00;22.33;;;;;5.26;100.00;102252.63;5104619;27;45345;-82
2022/01/11 02:30:50;;;;;;;;;18.00;18.00;;;;;5.33;100.00;102253.06;5104905;27;45514;-82
2022/01/11 02:33:32;;;;;;;;;33.67;25.00;;;;;5.31;100.00;102246.81;5086706;27;47229;-82
2022/01/11 02:36:05;;;;;;;;;12.00;11.67;;;;;5.36;100.00;102258.53;5107414;27;45555;-81
2022/01/11 02:38:31;;;;;;;;;22.67;20.67;;;;;5.34;100.00;102262.78;5105401;27;45590;-81
2022/01/11 02:40:58;;;;;;;;;29.00;23.00;;;;;5.33;100.00;102258.34;5103912;27;45479;-81
2022/01/11 02:43:24;;;;;;;;;19.33;19.33;;;;;5.31;100.00;102261.69;5101066;27;48287;-82
2022/01/11 02:45:49;;;;;;;;;29.33;23.00;;;;;5.31;100.00;102261.69;5085409;27;45774;-82
2022/01/11 02:48:14;;;;;;;;;23.33;22.33;;;;;5.27;100.00;102255.34;5093195;27;45486;-82
2022/01/11 02:50:40;;;;;;;;;24.33;21.00;;;;;5.24;100.00;102244.59;5104271;27;45819;-82
2022/01/11 02:53:07;;;;;;;;;24.33;23.33;;;;;5.27;100.00;102254.41;5094175;27;46137;-81
2022/01/11 02:55:37;;;;;;;;;21.00;21.00;;;;;5.31;100.00;102253.78;5085035;27;45424;-82
2022/01/11 02:58:03;;;;;;;;;25.00;18.67;;;;;5.27;100.00;102270.25;5085276;28;45418;-83
2022/01/11 03:00:29;;;;;;;;;23.33;23.33;;;;;5.22;100.00;102262.97;5102855;27;45623;-82
2022/01/11 03:02:54;;;;;;;;;23.00;21.00;;;;;5.19;100.00;102256.59;5104945;27;47175;-82
2022/01/11 03:05:20;;;;;;;;;32.67;24.33;;;;;5.26;100.00;102253.50;5104030;27;45929;-82
2022/01/11 03:07:45;;;;;;;;;26.00;25.00;;;;;5.21;100.00;102249.69;5096544;27;45778;-82
2022/01/11 03:10:24;;;;;;;;;31.33;27.33;;;;;5.27;100.00;102259.69;5085962;27;45696;-82
2022/01/11 03:12:50;;;;;;;;;21.67;21.67;;;;;5.23;100.00;102258.59;5105595;27;48003;-82
2022/01/11 03:15:16;;;;;;;;;32.67;27.67;;;;;5.31;100.00;102262.63;5106822;27;45378;-82
2022/01/11 03:17:41;;;;;;;;;33.67;27.33;;;;;5.27;100.00;102265.91;5107247;27;45563;-81
2022/01/11 03:20:08;;;;;;;;;29.00;27.33;;;;;5.31;100.00;102262.63;5102226;27;45415;-82
2022/01/11 03:22:33;;;;;;;;;33.00;28.33;;;;;5.31;100.00;102267.91;5099775;27;45547;-82
2022/01/11 03:24:59;;;;;;;;;32.00;26.33;;;;;5.31;100.00;102267.91;5106358;27;45429;-82
2022/01/11 03:27:24;;;;;;;;;35.33;29.00;;;;;5.34;100.00;102275.97;5098618;27;45749;-82
2022/01/11 03:29:53;;;;;;;;;36.33;31.67;;;;;5.37;100.00;102276.19;5098680;27;45563;-82
2022/01/11 03:32:19;;;;;;;;;29.67;28.00;;;;;5.31;100.00;102277.53;5100418;27;47532;-82
2022/01/11 03:34:46;;;;;;;;;33.33;31.33;;;;;5.21;100.00;102282.25;5102645;27;45537;-82
2022/01/11 03:37:17;;;;;;;;;31.00;29.33;;;;;5.19;100.00;102281.25;5101627;27;45549;-82
2022/01/11 03:39:43;;;;;;;;;36.33;35.00;;;;;5.09;100.00;102270.03;5109171;27;45461;-82
2022/01/11 03:42:09;;;;;;;;;33.33;29.33;;;;;5.15;100.00;102288.88;5123243;27;46363;-82
2022/01/11 03:44:36;;;;;;;;;41.33;33.00;;;;;5.13;100.00;102278.25;5107243;27;45429;-82
2022/01/11 03:47:02;;;;;;;;;37.67;33.00;;;;;5.04;100.00;102287.31;5110224;27;45952;-81
2022/01/11 03:49:28;;;;;;;;;36.33;30.67;;;;;5.03;100.00;102290.75;5087181;27;45391;-82
2022/01/11 03:51:53;;;;;;;;;42.33;35.33;;;;;4.95;100.00;102278.03;5087374;27;48166;-82
2022/01/11 03:54:28;;;;;;;;;42.67;35.67;;;;;4.93;100.00;102279.66;5105777;27;45826;-82
2022/01/11 03:56:56;;;;;;;;;33.67;27.33;;;;;4.91;100.00;102281.28;5105683;27;45803;-82
2022/01/11 03:59:22;;;;;;;;;34.33;29.00;;;;;4.89;100.00;102288.19;5124645;27;45442;-82
2022/01/11 04:01:48;;;;;;;;;33.67;29.67;;;;;4.87;100.00;102288.91;5101458;27;47314;-82
2022/01/11 04:04:15;;;;;;;;;30.00;27.33;;;;;4.84;100.00;102292.25;5085187;27;45408;-81
2022/01/11 04:06:41;;;;;;;;;34.33;28.67;;;;;4.77;100.00;102284.81;5085353;27;45385;-81
2022/01/11 04:12:28;;;;;;;;;34.00;28.33;;;;;4.69;100.00;102288.69;5105185;27;45725;-81
2022/01/11 04:14:53;;;;;;;;;28.33;28.00;;;;;4.63;100.00;102280.41;5107463;27;45333;-81
2022/01/11 04:17:19;;;;;;;;;28.00;23.67;;;;;4.64;100.00;102284.84;5100111;27;45435;-82
2022/01/11 04:19:44;;;;;;;;;29.00;25.67;;;;;4.57;100.00;102279.19;5086153;27;45759;-82
2022/01/11 04:22:10;;;;;;;;;23.33;21.33;;;;;4.53;100.00;102278.91;5102746;27;45721;-81
2022/01/11 04:24:35;;;;;;;;;30.67;28.67;;;;;4.55;100.00;102290.44;5085681;27;45764;-82
2022/01/11 04:27:01;;;;;;;;;31.67;25.67;;;;;4.52;100.00;102290.22;5105395;27;45624;-81
2022/01/11 04:29:26;;;;;;;;;24.00;24.00;;;;;4.57;100.00;102294.09;5100169;27;45639;-82
2022/01/11 04:31:52;;;;;;;;;33.00;27.33;;;;;4.51;100.00;102276.16;5103860;27;46795;-82
2022/01/11 04:34:20;;;;;;;;;36.67;32.67;;;;;4.54;100.00;102284.25;5102971;27;45770;-81
2022/01/11 04:36:45;;;;;;;;;33.00;27.33;;;;;4.48;100.00;102304.94;5107508;27;45448;-81
2022/01/11 04:39:13;;;;;;;;;27.33;27.33;;;;;4.44;100.00;102292.38;5104342;27;45394;-81
2022/01/11 04:41:39;;;;;;;;;31.00;30.67;;;;;4.46;100.00;102290.75;5105862;27;47393;-81
2022/01/11 04:44:06;;;;;;;;;28.33;20.33;;;;;4.43;100.00;102292.31;5105397;27;45858;-82
2022/01/11 04:46:31;;;;;;;;;31.00;26.67;;;;;4.39;100.00;102300.00;5101129;27;44941;-81
2022/01/11 04:48:59;;;;;;;;;36.67;30.00;;;;;4.38;100.00;102298.19;5085527;27;45558;-81
2022/01/11 04:51:25;;;;;;;;;28.33;26.00;;;;;4.38;100.00;102298.19;5103473;27;45430;-81
2022/01/11 04:53:51;;;;;;;;;35.00;26.00;;;;;4.44;100.00;102323.09;5084728;27;45494;-81
2022/01/11 04:56:18;;;;;;;;;24.00;23.33;;;;;4.50;100.00;102329.66;5102765;27;45460;-82
2022/01/11 04:58:44;;;;;;;;;33.33;28.33;;;;;4.44;100.00;102313.44;5107006;27;45507;-81
2022/01/11 05:01:09;;;;;;;;;44.00;37.00;;;;;4.52;100.00;102330.66;5106999;27;45294;-81
2022/01/11 05:03:35;;;;;;;;;29.67;26.00;;;;;4.48;100.00;102315.47;5088339;27;45539;-81
2022/01/11 05:06:06;;;;;;;;;31.33;26.00;;;;;4.57;100.00;102305.53;5100793;27;45406;-81
2022/01/11 05:08:33;;;;;;;;;27.33;26.00;;;;;4.57;100.00;102321.34;5126962;27;45470;-82
2022/01/11 05:10:58;;;;;;;;;36.33;27.67;;;;;4.57;100.00;102321.34;5107220;27;47018;-81
2022/01/11 05:13:23;;;;;;;;;28.33;26.33;;;;;4.59;100.00;102331.97;5111426;27;45439;-82
2022/01/11 05:15:50;;;;;;;;;28.00;28.00;;;;;4.59;100.00;102330.25;5104518;27;45685;-82
2022/01/11 05:18:16;;;;;;;;;40.33;31.33;;;;;4.56;100.00;102323.88;5087494;27;45399;-82
2022/01/11 05:20:43;;;;;;;;;34.00;28.67;;;;;4.61;100.00;102333.00;5088582;27;47199;-82
2022/01/11 05:23:09;;;;;;;;;41.00;31.67;;;;;4.60;100.00;102332.09;5108328;27;45549;-81
2022/01/11 05:25:35;;;;;;;;;35.00;30.67;;;;;4.60;100.00;102329.47;5115992;27;45448;-81
2022/01/11 05:28:01;;;;;;;;;35.00;24.33;;;;;4.60;100.00;102318.91;5108002;27;45551;-82
2022/01/11 05:30:28;;;;;;;;;30.67;26.00;;;;;4.65;100.00;102318.28;5123725;27;45385;-82
2022/01/11 05:32:53;;;;;;;;;37.67;31.00;;;;;4.57;100.00;102329.25;5104214;27;45459;-81
2022/01/11 05:35:27;;;;;;;;;28.00;28.00;;;;;4.61;100.00;102338.25;5102349;27;45479;-81
2022/01/11 05:37:53;;;;;;;;;30.67;27.33;;;;;4.56;100.00;102330.03;5084574;27;45436;-81
2022/01/11 05:40:19;;;;;;;;;28.67;24.33;;;;;4.52;100.00;102330.66;5100087;27;45498;-81
2022/01/11 05:42:46;;;;;;;;;30.67;24.67;;;;;4.50;100.00;102336.66;5092286;27;45814;-81
2022/01/11 05:45:13;;;;;;;;;34.33;24.00;;;;;4.49;100.00;102338.38;5103834;27;45511;-82
2022/01/11 05:47:39;;;;;;;;;32.67;30.67;;;;;4.51;100.00;102349.94;5124187;27;45510;-81
2022/01/11 05:50:07;;;;;;;;;9.67;8.67;;;;;4.55;100.00;102359.84;5123802;27;46210;-82
2022/01/11 05:52:35;;;;;;;;;33.33;29.33;;;;;4.52;100.00;102364.00;5124448;27;45383;-81
2022/01/11 05:55:00;;;;;;;;;31.33;30.33;;;;;4.47;100.00;102371.63;5106329;27;44886;-82
2022/01/11 05:57:27;;;;;;;;;34.67;29.00;;;;;4.46;100.00;102368.88;5124461;27;44865;-81
2022/01/11 05:59:52;;;;;;;;;34.33;29.67;;;;;4.39;100.00;102378.13;5106583;27;47005;-82
2022/01/11 06:02:18;;;;;;;;;34.67;29.33;;;;;4.34;100.00;102375.19;5124215;27;45422;-82
2022/01/11 06:04:43;;;;;;;;;39.67;31.00;;;;;4.40;100.00;102377.28;5102616;27;45799;-81
2022/01/11 06:07:09;;;;;;;;;40.67;33.33;;;;;4.47;100.00;102381.25;5121496;27;45873;-82
2022/01/11 06:09:35;;;;;;;;;33.33;29.33;;;;;4.49;100.00;102375.25;5104473;27;48730;-82
2022/01/11 06:12:01;;;;;;;;;35.67;30.33;;;;;4.52;100.00;102377.19;5116535;27;45466;-81
2022/01/11 06:14:26;;;;;;;;;35.33;32.67;;;;;4.49;100.00;102375.25;5103675;27;45471;-81
2022/01/11 06:16:52;;;;;;;;;39.33;34.33;;;;;4.43;100.00;102364.34;5084877;27;45599;-81
2022/01/11 06:19:17;;;;;;;;;32.00;30.67;;;;;4.43;100.00;102372.22;5101880;27;48400;-81
2022/01/11 06:21:44;;;;;;;;;25.67;23.00;;;;;4.50;100.00;102389.34;5103387;27;45446;-82
2022/01/11 06:24:09;;;;;;;;;33.33;31.00;;;;;4.37;100.00;102379.75;5085006;27;45492;-82
2022/01/11 06:26:35;;;;;;;;;34.33;32.67;;;;;4.35;100.00;102394.53;5085612;27;45298;-81
2022/01/11 06:29:02;;;;;;;;;35.67;34.33;;;;;4.29;100.00;102391.50;5087122;27;47049;-81
2022/01/11 06:31:28;;;;;;;;;40.67;34.00;;;;;4.32;100.00;102396.94;5086741;27;45620;-81
2022/01/11 06:37:17;;;;;;;;;38.00;30.00;;;;;4.36;100.00;102402.53;5106715;27;45399;-81
2022/01/11 06:39:42;;;;;;;;;45.67;36.33;;;;;4.30;100.00;102394.25;5104515;27;45577;-82
2022/01/11 06:42:08;;;;;;;;;34.00;29.67;;;;;4.31;100.00;102395.13;5086998;27;45475;-81
2022/01/11 06:44:33;;;;;;;;;41.33;36.00;;;;;4.23;100.00;102391.09;5102896;27;45466;-80
2022/01/11 06:46:59;;;;;;;;;41.67;37.00;;;;;4.20;100.00;102392.72;5106489;27;44772;-81
2022/01/11 06:49:24;;;;;;;;;44.67;37.33;;;;;4.14;100.00;102386.09;5106172;27;45760;-81
2022/01/11 06:51:50;;;;;;;;;37.67;33.33;;;;;4.15;100.00;102387.94;5088151;27;45461;-81
2022/01/11 06:54:15;;;;;;;;;49.33;40.33;;;;;4.10;100.00;102391.97;5087565;27;45529;-81
2022/01/11 06:56:41;;;;;;;;;33.00;29.67;;;;;4.06;100.00;102401.41;5107445;27;45427;-82
2022/01/11 06:59:06;;;;;;;;;40.00;33.33;;;;;4.04;100.00;102395.13;5089555;27;47101;-81
2022/01/11 07:01:34;;;;;;;;;43.33;38.67;;;;;4.08;100.00;102412.97;5109585;27;45672;-82
2022/01/11 07:04:00;;;;;;;;;38.00;31.67;;;;;4.00;100.00;102414.16;5128971;27;45924;-82
2022/01/11 07:06:25;;;;;;;;;43.00;34.67;;;;;3.96;100.00;102412.13;5110546;27;45410;-81
2022/01/11 07:08:51;;;;;;;;;34.00;32.33;;;;;3.88;100.00;102413.31;5115282;27;46916;-81
2022/01/11 07:11:16;;;;;;;;;41.33;35.00;;;;;3.82;100.00;102413.81;5130789;27;45498;-81
2022/01/11 07:20:26;;;;;;;;;36.33;29.00;;;;;3.69;100.00;102412.06;5128661;27;45046;-82
2022/01/11 07:22:51;;;;;;;;;47.33;37.67;;;;;3.69;100.00;102414.69;5127093;27;45390;-82
2022/01/11 07:25:17;;;;;;;;;34.67;27.67;;;;;3.72;100.00;102430.69;5109442;27;45740;-82
2022/01/11 07:27:42;;;;;;;;;48.00;39.67;;;;;3.66;100.00;102426.75;5105893;27;45410;-82
2022/01/11 07:30:09;;;;;;;;;43.33;38.33;;;;;3.70;100.00;102444.56;5098614;27;47198;-82
2022/01/11 07:32:35;;;;;;;;;39.33;37.67;;;;;3.65;100.00;102445.94;5107349;27;45436;-82
2022/01/11 07:35:03;;;;;;;;;37.00;34.00;;;;;3.71;100.00;102452.53;5089023;27;45507;-82
2022/01/11 07:37:29;;;;;;;;;36.00;34.33;;;;;3.71;100.00;102456.91;5106257;27;45767;-82
2022/01/11 07:39:54;;;;;;;;;50.33;40.67;;;;;3.70;100.00;102456.00;5105330;27;45653;-82
2022/01/11 07:42:20;;;;;;;;;47.25;43.25;;;;;3.78;100.00;102465.31;5107931;27;45806;-82
2022/01/11 07:44:50;;;;;;;;;39.00;36.00;;;;;3.84;100.00;102470.13;5091460;27;45445;-82
2022/01/11 07:47:19;;;;;;;;;35.67;29.33;;;;;3.83;100.00;102467.38;5092240;27;45456;-82
2022/01/11 07:49:44;;;;;;;;;43.33;37.33;;;;;3.80;100.00;102457.53;5111459;27;48023;-81
2022/01/11 07:52:10;;;;;;;;;41.00;33.67;;;;;3.83;100.00;102463.00;5109618;27;45890;-81
2022/01/11 07:54:36;;;;;;;;;34.33;34.33;;;;;3.84;100.00;102456.00;5096364;27;45493;-82
2022/01/11 07:57:01;;;;;;;;;36.33;35.00;;;;;3.84;100.00;102464.84;5123244;27;45422;-81
2022/01/11 07:59:27;;;;;;;;;46.33;37.00;;;;;3.79;100.00;102461.88;5108878;27;47528;-82
2022/01/11 08:01:53;;;;;;;;;44.33;40.00;;;;;3.76;100.00;102456.41;5092721;27;45401;-81
2022/01/11 08:04:20;;;;;;;;;39.33;31.67;;;;;3.83;100.00;102462.09;5088677;27;45439;-82
2022/01/11 08:06:45;;;;;;;;;43.67;40.33;;;;;3.77;100.00;102466.13;5114193;27;45512;-82
2022/01/11 08:09:12;;;;;;;;;37.33;30.67;;;;;3.78;100.00;102477.59;5096911;27;46974;-81
2022/01/11 08:11:38;;;;;;;;;37.67;35.33;;;;;3.76;100.00;102493.25;5091712;27;45690;-81
2022/01/11 08:14:03;;;;;;;;;44.00;40.00;;;;;3.74;100.00;102494.88;5116120;27;44931;-82
2022/01/11 08:17:06;;;;;;;;;50.33;42.67;;;;;3.81;100.00;102496.19;5101352;27;45759;-82
2022/01/11 08:19:35;;;;;;;;;54.33;41.33;;;;;3.66;100.00;102496.06;5111687;27;45162;-81
2022/01/11 08:22:02;;;;;;;;;41.00;35.33;;;;;3.72;100.00;102503.47;5128213;27;45474;-82
2022/01/11 08:24:27;;;;;;;;;37.00;33.00;;;;;3.70;100.00;102508.63;5100126;27;45426;-81
2022/01/11 08:26:56;;;;;;;;;42.67;39.67;;;;;3.78;100.00;102506.53;5108386;27;45371;-81
2022/01/11 08:29:22;;;;;;;;;47.67;41.33;;;;;3.78;100.00;102506.53;5108305;27;45426;-82
2022/01/11 08:31:49;;;;;;;;;43.00;38.00;;;;;3.86;100.00;102520.19;5074320;27;45579;-82
2022/01/11 08:34:15;;;;;;;;;39.00;34.00;;;;;3.81;100.00;102517.25;5096163;27;45970;-81
2022/01/11 08:36:43;;;;;;;;;38.00;36.00;;;;;3.89;100.00;102530.94;5114312;27;45345;-81
2022/01/11 08:39:10;;;;;;;;;38.33;34.67;;;;;3.85;100.00;102529.81;5088293;27;47033;-80
2022/01/11 08:41:36;;;;;;;;;41.00;37.00;;;;;3.93;100.00;102530.38;5105422;27;45700;-81
2022/01/11 08:44:02;;;;;;;;;41.67;36.67;;;;;3.89;100.00;102509.91;5090874;27;45498;-82
2022/01/11 08:46:27;;;;;;;;;45.33;40.67;;;;;3.98;100.00;102531.63;5098779;27;45788;-82
2022/01/11 08:49:02;;;;;;;;;44.00;35.67;;;;;4.01;100.00;102543.25;5109379;27;47245;-82
2022/01/11 08:51:41;;;;;;;;;44.33;39.00;;;;;4.02;100.00;102533.66;5106244;27;45621;-82
2022/01/11 08:54:07;;;;;;;;;48.67;40.00;;;;;4.02;100.00;102525.75;5104122;27;45089;-82
2022/01/11 08:56:33;;;;;;;;;43.67;40.00;;;;;4.14;100.00;102523.97;5115778;27;45342;-83
2022/01/11 08:58:59;;;;;;;;;37.00;31.33;;;;;4.16;100.00;102527.63;5129148;27;45849;-84
2022/01/11 09:01:34;;;;;;;;;47.00;39.67;;;;;4.20;100.00;102520.81;5107448;27;45848;-82
2022/01/11 09:04:01;;;;;;;;;39.00;36.33;;;;;4.27;100.00;102516.91;5108516;27;45257;-81
2022/01/11 09:06:27;;;;;;;;;53.00;44.00;;;;;4.40;100.00;102523.09;5090090;27;45425;-81
2022/01/11 09:08:53;;;;;;;;;41.33;36.67;;;;;4.49;100.00;102516.63;5106761;27;47961;-82
2022/01/11 09:11:19;;;;;;;;;41.33;36.33;;;;;4.49;100.00;102522.81;5089585;27;45385;-82
2022/01/11 09:13:45;;;;;;;;;48.67;38.33;;;;;4.42;100.00;102515.28;5109446;27;45616;-81
2022/01/11 09:16:11;;;;;;;;;44.67;38.00;;;;;4.38;100.00;102513.25;5108520;27;45471;-82
2022/01/11 09:18:38;;;;;;;;;43.67;40.00;;;;;4.40;100.00;102524.81;5089236;27;46928;-82
2022/01/11 09:21:12;;;;;;;;;46.33;40.00;;;;;4.30;100.00;102510.13;5106060;27;45473;-82
2022/01/11 09:23:41;;;;;;;;;42.33;35.67;;;;;4.31;100.00;102517.19;5108970;27;45329;-82
2022/01/11 09:26:08;;;;;;;;;52.00;43.67;;;;;4.25;100.00;102495.72;5094800;27;45885;-83
2022/01/11 09:28:34;;;;;;;;;28.33;27.33;;;;;4.17;100.00;102491.66;5087214;27;47359;-83
2022/01/11 09:30:59;;;;;;;;;41.33;34.67;;;;;4.37;100.00;102516.72;5088304;27;45531;-82
2022/01/11 09:33:25;;;;;;;;;50.67;43.67;;;;;4.44;100.00;102505.75;5088279;27;45984;-82
2022/01/11 09:35:53;;;;;;;;;51.67;41.67;;;;;4.45;100.00;102510.25;5087697;27;45449;-82
2022/01/11 09:39:06;;;;;;;;;48.00;39.33;;;;;4.62;100.00;102540.34;5087318;27;45376;-82
2022/01/11 09:41:35;;;;;;;;;51.67;44.00;;;;;4.51;100.00;102534.38;5103470;27;45461;-82
2022/01/11 09:44:01;;;;;;;;;48.67;44.00;;;;;4.48;100.00;102536.78;5087887;27;45293;-82
2022/01/11 09:46:28;;;;;;;;;56.75;46.50;;;;;4.41;100.00;102539.81;5088280;27;45773;-82
2022/01/11 09:48:56;;;;;;;;;60.67;48.00;;;;;4.40;100.00;102564.31;5100722;27;46958;-83
2022/01/11 09:51:25;;;;;;;;;52.00;42.00;;;;;4.27;100.00;102551.13;5112791;27;45396;-82
2022/01/11 09:53:51;;;;;;;;;45.00;41.00;;;;;4.23;100.00;102543.84;5089508;27;45501;-82
2022/01/11 09:56:17;;;;;;;;;49.25;41.75;;;;;4.11;100.00;102520.19;5095683;27;45827;-82
2022/01/11 09:58:49;;;;;;;;;65.25;50.25;;;;;4.38;100.00;102555.41;5128590;27;45501;-82
2022/01/11 10:11:37;;;;;;;;;46.33;43.33;;;;;4.64;100.00;102564.16;5107585;27;46188;-82
2022/01/11 10:14:25;;;;;;;;;47.25;44.00;;;;;4.76;100.00;102568.53;5088640;27;45338;-81
2022/01/11 10:17:08;;;;;;;;;49.00;43.33;;;;;4.80;100.00;102572.28;5087858;27;45214;-80
2022/01/11 10:19:36;;;;;;;;;47.67;38.67;;;;;4.79;100.00;102575.75;5124283;27;45333;-81
2022/01/11 10:22:04;;;;;;;;;60.50;48.25;;;;;4.83;100.00;102577.78;5110629;27;48532;-82
2022/01/11 10:24:32;;;;;;;;;50.50;44.75;;;;;4.82;100.00;102582.13;5095481;27;45829;-81
2022/01/11 10:27:12;;;;;;;;;46.00;39.25;;;;;4.88;100.00;102586.91;5132170;27;45787;-82
2022/01/11 10:29:40;;;;;;;;;49.50;42.25;;;;;4.87;99.64;102587.72;5113977;27;45355;-81
2022/01/11 10:32:34;;;;;;;;;47.00;36.00;;;;;4.83;100.00;102590.97;5093551;27;48132;-81
2022/01/11 10:35:30;;;;;;;;;48.33;40.67;;;;;4.82;100.00;102589.13;5111986;27;45489;-82
2022/01/11 10:38:00;;;;;;;;;40.00;38.00;;;;;4.80;100.00;102577.56;5112592;27;45490;-82
2022/01/11 10:40:35;;;;;;;;;51.75;44.25;;;;;4.86;100.00;102590.25;5109507;27;45417;-81
2022/01/11 10:43:16;;;;;;;;;46.25;39.75;;;;;4.83;100.00;102593.59;5103381;27;46193;-81
2022/01/11 10:45:44;;;;;;;;;55.50;43.25;;;;;4.68;100.00;102571.47;5087325;27;45429;-82
2022/01/11 10:48:13;;;;;;;;;54.00;46.00;;;;;4.63;100.00;102567.63;5096883;27;45424;-81
2022/01/11 10:50:46;;;;;;;;;51.00;43.00;;;;;4.69;100.00;102584.75;5106626;27;44968;-81
2022/01/11 10:53:25;;;;;;;;;42.00;41.67;;;;;4.71;100.00;102583.13;5087144;27;46113;-81
2022/01/11 10:55:54;;;;;;;;;42.33;35.33;;;;;4.66;100.00;102567.81;5104311;27;45724;-82
2022/01/11 10:58:22;;;;;;;;;53.00;43.33;;;;;4.73;100.00;102591.16;5105379;27;45283;-80
2022/01/11 11:00:51;;;;;;;;;56.33;45.33;;;;;4.75;100.00;102577.25;5103756;27;45727;-81
2022/01/11 11:03:33;;;;;;;;;47.00;41.67;;;;;4.76;100.00;102565.00;5087495;28;47282;-80
2022/01/11 11:06:07;;;;;;;;;45.67;41.33;;;;;4.90;100.00;102584.38;5073790;28;45755;-80
2022/01/11 11:08:40;;;;;;;;;47.67;41.00;;;;;4.89;100.00;102562.38;5099391;27;45352;-77
2022/01/11 11:11:18;;;;;;;;;45.33;40.33;;;;;5.16;100.00;102594.91;5087489;27;45510;-80
2022/01/11 11:13:46;;;;;;;;;60.67;43.67;;;;;5.23;100.00;102590.94;5087040;28;45548;-80
2022/01/11 11:16:23;;;;;;;;;45.00;40.33;;;;;5.27;100.00;102569.25;5085712;27;45504;-80
2022/01/11 11:18:54;;;;;;;;;49.33;44.33;;;;;5.46;100.00;102597.72;5086582;27;45497;-80
2022/01/11 11:21:34;;;;;;;;;55.50;44.25;;;;;5.52;100.00;102594.59;5087227;28;45364;-79
2022/01/11 11:24:13;;;;;;;;;55.67;42.00;;;;;5.69;100.00;102588.63;5085982;27;48196;-80
2022/01/11 11:26:49;;;;;;;;;47.33;43.00;;;;;5.73;100.00;102590.66;5086630;28;45463;-79
2022/01/11 11:29:19;;;;;;;;;53.00;42.33;;;;;5.74;99.55;102597.78;5086757;28;45534;-81
2022/01/11 11:31:46;;;;;;;;;21.00;20.00;;;;;5.46;99.40;102562.53;5085742;28;45768;-79
2022/01/11 11:34:12;;;;;;;;;51.00;44.00;;;;;5.62;100.00;102591.72;5091053;27;46918;-80
2022/01/11 11:36:44;;;;;;;;;44.33;40.33;;;;;5.54;100.00;102571.84;5110917;27;45735;-81
2022/01/11 11:39:24;;;;;;;;;54.00;48.25;;;;;5.65;100.00;102589.25;5098218;27;46002;-80
2022/01/11 11:41:53;;;;;;;;;54.25;46.75;;;;;5.34;100.00;102542.44;5102700;27;45638;-81
2022/01/11 11:44:24;;;;;;;;;55.50;43.50;;;;;5.48;99.35;102558.25;5089394;27;45681;-81